createdAt,value
2022-12-26T00:01:22.988Z,97474.56
2022-12-26T00:03:51.161Z,97470.03
2022-12-26T00:06:27.781Z,97464.69
2022-12-26T00:08:55.917Z,97448.00
2022-12-26T00:11:24.250Z,97444.34
2022-12-26T00:13:57.725Z,97453.47
2022-12-26T00:16:25.845Z,97451.13
2022-12-26T00:18:53.964Z,97448.25
2022-12-26T00:21:23.890Z,97443.94
2022-12-26T00:23:54.209Z,97440.16
2022-12-26T00:26:23.513Z,97430.28
2022-12-26T00:28:50.990Z,97439.34
2022-12-26T00:31:21.135Z,97428.00
2022-12-26T00:33:48.758Z,97428.34
2022-12-26T00:36:29.224Z,97429.97
2022-12-26T00:38:58.784Z,97413.75
2022-12-26T00:41:27.373Z,97422.78
2022-12-26T00:43:56.264Z,97412.84
2022-12-26T00:46:26.007Z,97416.19
2022-12-26T00:48:53.859Z,97422.44
2022-12-26T00:51:21.564Z,97425.38
2022-12-26T00:53:49.271Z,97422.59
2022-12-26T00:56:16.920Z,97417.72
2022-12-26T00:58:45.127Z,97424.56
2022-12-26T01:01:18.712Z,97429.63
2022-12-26T01:03:47.692Z,97419.81
2022-12-26T01:06:16.036Z,97411.47
2022-12-26T01:08:43.631Z,97420.25
2022-12-26T01:11:13.544Z,97422.72
2022-12-26T01:13:42.289Z,97413.56
2022-12-26T01:16:09.866Z,97418.19
2022-12-26T01:18:37.415Z,97420.25
2022-12-26T01:21:08.791Z,97431.38
2022-12-26T01:23:36.256Z,97426.28
2022-12-26T01:26:18.183Z,97432.22
2022-12-26T01:28:50.870Z,97439.03
2022-12-26T01:31:20.275Z,97426.50
2022-12-26T01:33:48.447Z,97423.50
2022-12-26T01:36:16.953Z,97422.38
2022-12-26T01:38:45.199Z,97418.56
2022-12-26T01:41:22.557Z,97419.59
2022-12-26T01:43:58.423Z,97417.38
2022-12-26T01:46:31.366Z,97417.72
2022-12-26T01:49:06.563Z,97409.19
2022-12-26T01:51:39.141Z,97425.38
2022-12-26T01:54:39.887Z,97421.31
2022-12-26T01:56:58.544Z,97424.34
2022-12-26T01:59:28.852Z,97416.00
2022-12-26T02:01:59.216Z,97408.81
2022-12-26T02:04:51.785Z,97416.56
2022-12-26T02:07:19.434Z,97411.25
2022-12-26T02:09:46.874Z,97401.41
2022-12-26T02:12:35.550Z,97408.34
2022-12-26T02:15:10.994Z,97405.06
2022-12-26T02:17:39.892Z,97397.88
2022-12-26T02:20:20.530Z,97393.31
2022-12-26T02:23:25.632Z,97393.31
2022-12-26T02:26:11.569Z,97384.03
2022-12-26T02:28:52.016Z,97399.22
2022-12-26T02:31:31.444Z,97397.84
2022-12-26T02:34:17.560Z,97400.38
2022-12-26T02:37:06.476Z,97413.59
2022-12-26T02:39:53.854Z,97414.78
2022-12-26T02:42:29.531Z,97414.22
2022-12-26T02:45:44.952Z,97406.09
2022-12-26T02:48:19.562Z,97407.56
2022-12-26T02:51:41.638Z,97405.50
2022-12-26T02:55:01.021Z,97402.72
2022-12-26T02:58:00.564Z,97407.97
2022-12-26T03:00:46.968Z,97406.09
2022-12-26T03:03:37.915Z,97423.38
2022-12-26T03:06:30.616Z,97410.03
2022-12-26T03:09:24.016Z,97419.19
2022-12-26T03:12:22.266Z,97416.75
2022-12-26T03:14:55.526Z,97410.31
2022-12-26T03:17:29.206Z,97399.53
2022-12-26T03:20:30.218Z,97395.75
2022-12-26T03:23:06.529Z,97400.97
2022-12-26T03:26:10.258Z,97408.00
2022-12-26T03:28:38.489Z,97414.22
2022-12-26T03:31:09.253Z,97414.72
2022-12-26T03:33:58.748Z,97410.44
2022-12-26T03:37:03.445Z,97404.06
2022-12-26T03:39:54.817Z,97409.84
2022-12-26T03:43:14.188Z,97402.09
2022-12-26T03:46:18.218Z,97409.47
2022-12-26T03:49:26.948Z,97406.69
2022-12-26T03:52:22.489Z,97421.69
2022-12-26T03:55:37.058Z,97403.31
2022-12-26T03:58:44.729Z,97410.00
2022-12-26T04:01:36.983Z,97417.19
2022-12-26T04:04:25.576Z,97408.28
2022-12-26T04:07:56.151Z,97421.03
2022-12-26T04:10:58.399Z,97425.34
2022-12-26T04:14:15.539Z,97435.44
2022-12-26T04:17:33.527Z,97446.91
2022-12-26T04:20:14.154Z,97453.84
2022-12-26T04:23:13.756Z,97450.25
2022-12-26T04:26:16.778Z,97447.81
2022-12-26T04:29:02.957Z,97456.81
2022-12-26T04:31:55.348Z,97453.75
2022-12-26T04:34:50.838Z,97454.22
2022-12-26T04:37:43.888Z,97472.13
2022-12-26T04:40:37.932Z,97461.47
2022-12-26T04:43:48.796Z,97461.47
2022-12-26T04:46:16.835Z,97467.28
2022-12-26T04:49:05.716Z,97447.25
2022-12-26T04:51:34.427Z,97444.81
2022-12-26T04:54:02.314Z,97443.75
2022-12-26T04:56:29.858Z,97446.06
2022-12-26T04:58:57.455Z,97450.81
2022-12-26T05:01:43.564Z,97452.34
2022-12-26T05:04:34.951Z,97458.81
2022-12-26T05:07:23.155Z,97462.38
2022-12-26T05:09:53.519Z,97451.19
2022-12-26T05:12:21.483Z,97453.38
2022-12-26T05:14:48.982Z,97450.72
2022-12-26T05:17:35.259Z,97446.28
2022-12-26T05:24:33.398Z,97448.34
2022-12-26T05:27:19.464Z,97447.19
2022-12-26T05:29:47.001Z,97436.69
2022-12-26T05:32:14.519Z,97435.88
2022-12-26T05:34:42.063Z,97442.00
2022-12-26T05:37:09.460Z,97429.13
2022-12-26T05:39:37.064Z,97450.25
2022-12-26T05:42:04.664Z,97444.81
2022-12-26T05:44:32.195Z,97455.81
2022-12-26T05:46:59.696Z,97434.81
2022-12-26T05:49:27.170Z,97442.81
2022-12-26T05:51:54.574Z,97440.75
2022-12-26T05:54:22.134Z,97444.13
2022-12-26T05:56:49.754Z,97426.41
2022-12-26T05:59:17.395Z,97431.75
2022-12-26T06:01:44.904Z,97441.34
2022-12-26T06:04:12.463Z,97431.28
2022-12-26T06:06:39.943Z,97422.94
2022-12-26T06:09:07.455Z,97432.56
2022-12-26T06:11:34.915Z,97441.34
2022-12-26T06:14:02.436Z,97444.00
2022-12-26T06:16:29.972Z,97425.22
2022-12-26T06:18:57.864Z,97428.53
2022-12-26T06:21:25.464Z,97423.94
2022-12-26T06:23:53.019Z,97422.66
2022-12-26T06:26:20.459Z,97412.69
2022-12-26T06:28:48.132Z,97408.88
2022-12-26T06:31:20.853Z,97403.91
2022-12-26T06:33:51.602Z,97397.28
2022-12-26T06:36:22.539Z,97409.31
2022-12-26T06:38:50.431Z,97406.56
2022-12-26T06:41:19.980Z,97413.81
2022-12-26T06:43:47.991Z,97422.25
2022-12-26T06:46:18.839Z,97417.72
2022-12-26T06:48:46.496Z,97410.19
2022-12-26T06:51:19.674Z,97426.56
2022-12-26T06:53:48.997Z,97438.34
2022-12-26T06:56:19.515Z,97448.59
2022-12-26T06:58:47.557Z,97465.63
2022-12-26T07:01:18.195Z,97467.16
2022-12-26T07:03:51.147Z,97476.78
2022-12-26T07:06:19.405Z,97483.72
2022-12-26T07:08:47.286Z,97479.91
2022-12-26T07:11:19.813Z,97480.50
2022-12-26T07:13:47.326Z,97492.50
2022-12-26T07:16:14.832Z,97488.50
2022-12-26T07:18:42.832Z,97492.50
2022-12-26T07:21:13.644Z,97487.44
2022-12-26T07:23:41.457Z,97490.31
2022-12-26T07:26:09.605Z,97488.25
2022-12-26T07:28:37.123Z,97493.09
2022-12-26T07:31:05.097Z,97485.00
2022-12-26T07:33:32.848Z,97489.75
2022-12-26T07:36:05.756Z,97487.31
2022-12-26T07:38:34.254Z,97473.91
2022-12-26T07:41:24.513Z,97480.84
2022-12-26T07:43:52.382Z,97488.13
2022-12-26T07:46:20.747Z,97495.22
2022-12-26T07:48:48.491Z,97497.44
2022-12-26T07:51:16.884Z,97490.94
2022-12-26T07:53:44.398Z,97496.38
2022-12-26T07:56:11.893Z,97479.81
2022-12-26T07:58:39.364Z,97485.72
2022-12-26T08:01:07.005Z,97499.72
2022-12-26T08:03:35.263Z,97496.84
2022-12-26T08:06:03.163Z,97495.91
2022-12-26T08:08:30.714Z,97492.44
2022-12-26T08:11:02.794Z,97501.03
2022-12-26T08:13:30.894Z,97498.22
2022-12-26T08:15:58.767Z,97497.97
2022-12-26T08:18:26.668Z,97492.66
2022-12-26T08:20:54.085Z,97477.09
2022-12-26T08:23:21.937Z,97480.25
2022-12-26T08:25:49.390Z,97478.56
2022-12-26T08:28:17.329Z,97496.06
2022-12-26T08:30:45.622Z,97498.03
2022-12-26T08:33:13.664Z,97498.69
2022-12-26T08:35:41.195Z,97493.94
2022-12-26T08:38:08.849Z,97486.41
2022-12-26T08:40:44.499Z,97493.78
2022-12-26T08:43:31.065Z,97502.69
2022-12-26T08:46:09.197Z,97486.44
2022-12-26T08:48:38.600Z,97472.88
2022-12-26T08:51:09.198Z,97488.47
2022-12-26T08:53:37.029Z,97494.06
2022-12-26T08:56:06.415Z,97505.03
2022-12-26T08:58:35.523Z,97501.66
2022-12-26T09:01:15.430Z,97493.75
2022-12-26T09:03:43.792Z,97491.31
2022-12-26T09:06:13.468Z,97484.19
2022-12-26T09:08:42.398Z,97478.03
2022-12-26T09:11:15.433Z,97486.63
2022-12-26T09:13:44.366Z,97486.16
2022-12-26T09:16:12.936Z,97486.88
2022-12-26T09:18:41.300Z,97488.09
2022-12-26T09:21:10.581Z,97496.44
2022-12-26T09:23:39.224Z,97500.56
2022-12-26T09:26:15.550Z,97503.28
2022-12-26T09:28:43.132Z,97512.13
2022-12-26T09:31:17.126Z,97514.88
2022-12-26T09:33:45.191Z,97523.19
2022-12-26T09:36:15.448Z,97521.41
2022-12-26T09:38:44.656Z,97513.00
2022-12-26T09:41:43.423Z,97528.84
2022-12-26T09:44:28.826Z,97530.72
2022-12-26T09:47:22.074Z,97529.91
2022-12-26T09:49:58.004Z,97530.00
2022-12-26T09:53:04.294Z,97520.19
2022-12-26T09:55:44.918Z,97523.25
2022-12-26T09:58:12.350Z,97511.69
2022-12-26T10:00:48.867Z,97523.25
2022-12-26T10:03:16.483Z,97501.47
2022-12-26T10:06:07.260Z,97500.06
2022-12-26T10:09:06.194Z,97498.22
2022-12-26T10:12:17.868Z,97498.00
2022-12-26T10:15:11.368Z,97485.69
2022-12-26T10:18:00.592Z,97473.56
2022-12-26T10:21:10.492Z,97473.06
2022-12-26T10:23:41.158Z,97476.72
2022-12-26T10:26:08.879Z,97493.34
2022-12-26T10:28:44.839Z,97487.41
2022-12-26T10:31:25.926Z,97489.91
2022-12-26T10:34:19.293Z,97478.78
2022-12-26T10:36:49.078Z,97477.34
2022-12-26T10:39:26.428Z,97478.91
2022-12-26T10:41:59.789Z,97485.84
2022-12-26T10:44:30.155Z,97501.38
2022-12-26T10:47:14.746Z,97483.63
2022-12-26T10:49:45.652Z,97485.75
2022-12-26T10:52:14.455Z,97479.72
2022-12-26T10:54:42.176Z,97477.59
2022-12-26T10:57:11.441Z,97475.72
2022-12-26T10:59:44.277Z,97474.56
2022-12-26T11:02:32.733Z,97465.72
2022-12-26T11:05:21.936Z,97495.50
2022-12-26T11:08:42.978Z,97499.59
2022-12-26T11:11:46.401Z,97493.94
2022-12-26T11:14:34.570Z,97493.16
2022-12-26T11:17:08.415Z,97500.06
2022-12-26T11:19:39.419Z,97486.13
2022-12-26T11:22:27.948Z,97469.09
2022-12-26T11:25:12.455Z,97475.00
2022-12-26T11:27:56.634Z,97476.03
2022-12-26T11:30:26.329Z,97469.19
2022-12-26T11:33:15.284Z,97472.66
2022-12-26T11:36:03.499Z,97475.31
2022-12-26T11:38:44.002Z,97487.00
2022-12-26T11:41:34.938Z,97492.72
2022-12-26T11:44:10.607Z,97489.22
2022-12-26T11:46:59.014Z,97489.66
2022-12-26T11:49:26.643Z,97476.03
2022-12-26T11:51:59.115Z,97472.81
2022-12-26T11:54:36.287Z,97471.50
2022-12-26T11:57:15.384Z,97469.59
2022-12-26T11:59:43.020Z,97459.88
2022-12-26T12:02:13.542Z,97455.75
2022-12-26T12:04:41.381Z,97447.41
2022-12-26T12:07:23.971Z,97456.63
2022-12-26T12:09:59.811Z,97457.84
2022-12-26T12:13:32.292Z,97463.69
2022-12-26T12:16:34.784Z,97466.28
2022-12-26T12:19:14.364Z,97462.41
2022-12-26T12:21:50.803Z,97468.00
2022-12-26T12:24:52.330Z,97470.13
2022-12-26T12:27:25.583Z,97461.53
2022-12-26T12:30:19.378Z,97463.50
2022-12-26T12:33:15.797Z,97466.47
2022-12-26T12:36:20.111Z,97453.78
2022-12-26T12:38:51.452Z,97443.59
2022-12-26T12:41:25.481Z,97467.84
2022-12-26T12:44:06.691Z,97464.47
2022-12-26T12:47:06.418Z,97450.41
2022-12-26T12:49:39.907Z,97445.88
2022-12-26T12:52:34.815Z,97463.97
2022-12-26T12:55:11.388Z,97449.13
2022-12-26T12:57:44.867Z,97439.72
2022-12-26T13:00:28.073Z,97431.63
2022-12-26T13:03:20.526Z,97429.53
2022-12-26T13:06:03.481Z,97444.34
2022-12-26T13:08:45.247Z,97452.25
2022-12-26T13:11:25.875Z,97470.72
2022-12-26T13:14:07.566Z,97456.22
2022-12-26T13:16:43.718Z,97471.91
2022-12-26T13:19:25.643Z,97466.41
2022-12-26T13:21:57.898Z,97467.31
2022-12-26T13:24:40.787Z,97473.25
2022-12-26T13:27:16.691Z,97484.19
2022-12-26T13:29:46.579Z,97488.63
2022-12-26T13:32:22.165Z,97477.03
2022-12-26T13:34:51.968Z,97486.63
2022-12-26T13:37:37.905Z,97497.00
2022-12-26T13:40:11.613Z,97514.63
2022-12-26T13:43:03.182Z,97512.22
2022-12-26T13:45:42.846Z,97519.09
2022-12-26T13:48:16.598Z,97513.63
2022-12-26T13:50:55.257Z,97511.22
2022-12-26T13:53:31.677Z,97514.09
2022-12-26T13:56:23.419Z,97531.38
2022-12-26T13:59:03.784Z,97535.09
2022-12-26T14:01:43.386Z,97531.84
2022-12-26T14:04:29.469Z,97531.50
2022-12-26T14:07:49.254Z,97538.69
2022-12-26T14:10:46.138Z,97537.53
2022-12-26T14:13:31.558Z,97525.63
2022-12-26T14:16:29.018Z,97521.44
2022-12-26T14:19:30.629Z,97544.13
2022-12-26T14:22:00.867Z,97535.56
2022-12-26T14:25:02.414Z,97539.75
2022-12-26T14:27:40.970Z,97534.53
2022-12-26T14:30:31.225Z,97539.50
2022-12-26T14:33:39.129Z,97528.59
2022-12-26T14:36:30.969Z,97529.53
2022-12-26T14:39:21.886Z,97528.94
2022-12-26T14:42:26.186Z,97534.97
2022-12-26T14:44:59.627Z,97543.63
2022-12-26T14:47:49.817Z,97554.50
2022-12-26T14:50:32.711Z,97555.66
2022-12-26T14:53:24.962Z,97568.03
2022-12-26T14:56:10.508Z,97563.88
2022-12-26T14:58:48.747Z,97563.38
2022-12-26T15:01:17.976Z,97567.31
2022-12-26T15:04:07.491Z,97570.56
2022-12-26T15:06:53.374Z,97566.50
2022-12-26T15:09:23.770Z,97579.22
2022-12-26T15:12:19.097Z,97578.84
2022-12-26T15:14:57.788Z,97573.53
2022-12-26T15:17:42.042Z,97574.44
2022-12-26T15:20:51.374Z,97581.00
2022-12-26T15:23:30.979Z,97587.03
2022-12-26T15:26:10.259Z,97584.59
2022-12-26T15:28:52.798Z,97584.38
2022-12-26T15:31:29.357Z,97589.91
2022-12-26T15:34:12.119Z,97590.94
2022-12-26T15:36:57.963Z,97575.44
2022-12-26T15:39:39.667Z,97582.06
2022-12-26T15:42:28.796Z,97586.44
2022-12-26T15:45:27.749Z,97594.56
2022-12-26T15:48:19.834Z,97591.53
2022-12-26T15:50:53.547Z,97595.91
2022-12-26T15:53:45.967Z,97589.53
2022-12-26T15:56:34.731Z,97597.53
2022-12-26T15:59:09.651Z,97597.53
2022-12-26T16:01:43.498Z,97590.13
2022-12-26T16:04:41.895Z,97589.69
2022-12-26T16:07:20.588Z,97585.97
2022-12-26T16:09:54.621Z,97577.34
2022-12-26T16:12:29.202Z,97593.66
2022-12-26T16:15:11.627Z,97601.63
2022-12-26T16:17:40.457Z,97587.28
2022-12-26T16:20:49.598Z,97584.63
2022-12-26T16:23:20.816Z,97588.09
2022-12-26T16:25:50.153Z,97587.88
2022-12-26T16:28:40.676Z,97591.25
2022-12-26T16:31:10.064Z,97600.44
2022-12-26T16:33:44.767Z,97582.25
2022-12-26T16:36:21.116Z,97589.63
2022-12-26T16:38:49.711Z,97595.97
2022-12-26T16:41:23.427Z,97601.69
2022-12-26T16:43:52.485Z,97601.69
2022-12-26T16:46:25.084Z,97598.56
2022-12-26T16:48:57.215Z,97598.31
2022-12-26T16:51:35.674Z,97590.44
2022-12-26T16:54:21.496Z,97591.56
2022-12-26T16:57:10.949Z,97589.34
2022-12-26T16:59:48.662Z,97600.09
2022-12-26T17:02:29.187Z,97592.19
2022-12-26T17:05:16.478Z,97599.13
2022-12-26T17:07:46.173Z,97603.88
2022-12-26T17:10:21.777Z,97608.00
2022-12-26T17:12:49.761Z,97594.00
2022-12-26T17:15:24.288Z,97597.09
2022-12-26T17:17:51.849Z,97600.22
2022-12-26T17:20:22.028Z,97599.16
2022-12-26T17:22:55.069Z,97593.28
2022-12-26T17:25:30.517Z,97589.66
2022-12-26T17:28:09.983Z,97586.78
2022-12-26T17:30:53.414Z,97581.69
2022-12-26T17:33:24.834Z,97578.78
2022-12-26T17:39:23.437Z,97582.94
2022-12-26T17:41:54.549Z,97582.28
2022-12-26T17:44:44.008Z,97577.91
2022-12-26T17:47:28.618Z,97576.19
2022-12-26T17:49:56.827Z,97575.25
2022-12-26T17:52:27.829Z,97585.66
2022-12-26T17:54:57.927Z,97582.09
2022-12-26T17:57:28.132Z,97589.28
2022-12-26T17:59:56.907Z,97590.91
2022-12-26T18:02:24.823Z,97588.59
2022-12-26T18:04:52.490Z,97591.25
2022-12-26T18:07:30.826Z,97582.38
2022-12-26T18:10:01.046Z,97583.19
2022-12-26T18:12:28.721Z,97593.25
2022-12-26T18:15:01.607Z,97599.69
2022-12-26T18:17:33.406Z,97586.81
2022-12-26T18:20:02.906Z,97578.03
2022-12-26T18:22:31.386Z,97578.75
2022-12-26T18:24:58.926Z,97567.09
2022-12-26T18:27:31.050Z,97559.34
2022-12-26T18:29:59.783Z,97557.94
2022-12-26T18:32:30.055Z,97572.63
2022-12-26T18:34:58.365Z,97557.28
2022-12-26T18:37:28.366Z,97570.47
2022-12-26T18:39:56.424Z,97571.38
2022-12-26T18:42:26.392Z,97567.31
2022-12-26T18:44:54.681Z,97579.81
2022-12-26T18:47:23.258Z,97575.25
2022-12-26T18:49:51.006Z,97564.94
2022-12-26T18:52:18.614Z,97577.63
2022-12-26T18:54:46.168Z,97577.19
2022-12-26T18:57:19.292Z,97564.94
2022-12-26T18:59:48.429Z,97569.06
2022-12-26T19:02:19.706Z,97566.22
2022-12-26T19:04:48.821Z,97558.00
2022-12-26T19:07:20.446Z,97547.00
2022-12-26T19:09:51.430Z,97547.25
2022-12-26T19:12:19.982Z,97563.59
2022-12-26T19:14:47.847Z,97564.50
2022-12-26T19:17:16.035Z,97554.75
2022-12-26T19:19:43.768Z,97534.50
2022-12-26T19:22:11.883Z,97550.00
2022-12-26T19:24:39.374Z,97547.88
2022-12-26T19:27:06.874Z,97551.84
2022-12-26T19:29:34.454Z,97550.34
2022-12-26T19:32:02.004Z,97556.72
2022-12-26T19:34:29.449Z,97547.59
2022-12-26T19:36:57.050Z,97558.09
2022-12-26T19:39:24.573Z,97559.53
2022-12-26T19:41:52.087Z,97576.75
2022-12-26T19:44:19.547Z,97565.25
2022-12-26T19:46:47.850Z,97546.44
2022-12-26T19:49:15.365Z,97543.34
2022-12-26T19:51:43.029Z,97543.34
2022-12-26T19:54:10.468Z,97547.56
2022-12-26T19:56:37.978Z,97553.16
2022-12-26T19:59:05.438Z,97564.59
2022-12-26T20:01:33.626Z,97569.97
2022-12-26T20:04:03.121Z,97572.25
2022-12-26T20:06:32.547Z,97568.34
2022-12-26T20:09:02.596Z,97575.09
2022-12-26T20:11:33.406Z,97584.75
2022-12-26T20:14:02.473Z,97594.72
2022-12-26T20:17:03.700Z,97609.03
2022-12-26T20:19:22.301Z,97629.97
2022-12-26T20:21:49.838Z,97623.06
2022-12-26T20:24:18.854Z,97634.47
2022-12-26T20:26:46.295Z,97634.28
2022-12-26T20:29:14.054Z,97647.31
2022-12-26T20:31:42.757Z,97653.69
2022-12-26T20:34:11.488Z,97659.66
2022-12-26T20:36:40.089Z,97665.66
2022-12-26T20:39:12.303Z,97669.59
2022-12-26T20:41:40.240Z,97676.00
2022-12-26T20:44:07.760Z,97678.50
2022-12-26T20:46:36.293Z,97681.63
2022-12-26T20:49:05.046Z,97685.91
2022-12-26T20:51:37.734Z,97690.22
2022-12-26T20:54:10.337Z,97689.03
2022-12-26T20:56:38.582Z,97664.34
2022-12-26T20:59:08.554Z,97666.00
2022-12-26T21:01:37.969Z,97664.19
2022-12-26T21:04:06.265Z,97649.72
2022-12-26T21:06:36.104Z,97635.66
2022-12-26T21:09:05.468Z,97620.41
2022-12-26T21:11:36.275Z,97651.63
2022-12-26T21:14:07.600Z,97653.88
2022-12-26T21:16:38.717Z,97665.28
2022-12-26T21:19:12.558Z,97667.97
2022-12-26T21:21:47.400Z,97669.38
2022-12-26T21:24:30.912Z,97679.38
2022-12-26T21:26:58.470Z,97679.00
2022-12-26T21:29:29.129Z,97694.09
2022-12-26T21:31:57.530Z,97689.84
2022-12-26T21:34:27.902Z,97685.38
2022-12-26T21:37:15.666Z,97704.31
2022-12-26T21:39:43.303Z,97710.41
2022-12-26T21:42:10.968Z,97715.72
2022-12-26T21:44:38.959Z,97709.19
2022-12-26T21:47:09.919Z,97733.25
2022-12-26T21:49:37.782Z,97745.06
2022-12-26T21:52:06.742Z,97748.72
2022-12-26T21:54:52.938Z,97754.63
2022-12-26T21:57:20.843Z,97760.53
2022-12-26T21:59:57.525Z,97767.25
2022-12-26T22:02:52.868Z,97773.56
2022-12-26T22:05:22.847Z,97796.25
2022-12-26T22:07:56.247Z,97789.88
2022-12-26T22:10:44.099Z,97803.50
2022-12-26T22:13:11.638Z,97805.88
2022-12-26T22:16:01.907Z,97809.50
2022-12-26T22:18:38.004Z,97824.94
2022-12-26T22:21:20.962Z,97826.50
2022-12-26T22:23:50.768Z,97837.47
2022-12-26T22:26:20.174Z,97835.63
2022-12-26T22:28:48.227Z,97848.13
2022-12-26T22:31:23.357Z,97852.38
2022-12-26T22:33:59.973Z,97854.72
2022-12-26T22:36:28.691Z,97860.16
2022-12-26T22:38:56.354Z,97865.38
2022-12-26T22:41:24.668Z,97872.19
2022-12-26T22:43:52.083Z,97878.66
2022-12-26T22:46:19.655Z,97887.34
2022-12-26T22:48:47.205Z,97900.03
2022-12-26T22:51:24.005Z,97900.41
2022-12-26T22:53:59.426Z,97912.69
2022-12-26T22:56:27.855Z,97927.38
2022-12-26T22:58:56.320Z,97930.69
2022-12-26T23:01:24.011Z,97926.31
2022-12-26T23:03:51.514Z,97936.25
2022-12-26T23:06:25.258Z,97944.09
2022-12-26T23:08:54.492Z,97954.91
2022-12-26T23:11:26.180Z,97955.34
2022-12-26T23:13:56.926Z,97962.72
2022-12-26T23:16:50.604Z,97962.88
2022-12-26T23:20:09.227Z,97970.00
2022-12-26T23:22:37.131Z,97981.56
2022-12-26T23:25:04.753Z,97992.84
2022-12-26T23:27:51.068Z,98005.38
2022-12-26T23:30:18.624Z,97997.09
2022-12-26T23:32:53.263Z,98003.09
2022-12-26T23:35:22.365Z,98010.56
2022-12-26T23:37:50.622Z,98013.38
2022-12-26T23:40:19.533Z,98022.75
2022-12-26T23:42:47.593Z,98016.63
2022-12-26T23:45:16.217Z,98020.72
2022-12-26T23:47:45.240Z,98030.25
2022-12-26T23:50:14.914Z,98043.94
2022-12-26T23:52:43.487Z,98046.94
2022-12-26T23:55:11.651Z,98046.78
2022-12-26T23:57:39.166Z,98044.03
